M I D A S
Marine Information and Data Acquisition System
Tripno 974 of the Zeeleeuw from 2005-10-19 06:32:24 to 2005-10-19 13:12:36
Back to CruiseResearch ActivitiesStationsMapUnderway DataData graphs

EquipmentUnitsComment
TimeDGPSUTC
LatitudeDGPSDM.mWGS84
LongitudeDGPSDM.mWGS84
HeadingGyrodeg 
SOGDGPSknotsSpeed over ground
COGDGPSdegCourse over ground
DepthEcho soundermeters200 kHz
Missing or incorrect values are displayed as -999
Navigation data collected by the RV Zeeleeuw from 2005-10-19 06:33:04 to 2005-10-19 13:22:30
                                                                                    Next 1000 lines
Time Latitude Longitude Heading SOG COG Depth
2005-10-19 06:33:14 51°13.603 2°56.094 114.5 1.3 292 5.1
2005-10-19 06:33:20 51°13.604 2°56.09 114.5 1.6 294 5.5
2005-10-19 06:33:24 51°13.605 2°56.087 114.9 1.8 296 5.6
2005-10-19 06:33:30 51°13.607 2°56.081 115.3 2.1 295 -999
2005-10-19 06:33:35 51°13.608 2°56.076 115.6 2.4 295 -999
2005-10-19 06:33:40 51°13.61 2°56.071 116 2.6 295 -999
2005-10-19 06:33:44 51°13.611 2°56.067 116.4 2.8 295 -999
2005-10-19 06:33:50 51°13.613 2°56.06 116.7 2.9 295 -999
2005-10-19 06:33:55 51°13.615 2°56.054 116.8 3.2 297 -999
2005-10-19 06:34:00 51°13.617 2°56.047 116.9 3.3 296 -999
2005-10-19 06:34:06 51°13.62 2°56.039 116.8 3.4 296 -999
2005-10-19 06:34:10 51°13.621 2°56.033 116.6 3.5 295 -999
2005-10-19 06:34:15 51°13.623 2°56.026 116.1 3.6 295 -999
2005-10-19 06:34:20 51°13.625 2°56.019 115.5 3.6 294 -999
2005-10-19 06:34:24 51°13.627 2°56.012 115 3.8 293 -999
2005-10-19 06:34:30 51°13.629 2°56.003 114.6 3.9 293 -999
2005-10-19 06:34:35 51°13.632 2°55.995 114.5 4.1 292 -999
2005-10-19 06:34:40 51°13.634 2°55.986 114.5 4.2 292 -999
2005-10-19 06:34:44 51°13.636 2°55.979 114.8 4.3 292 -999
2005-10-19 06:34:50 51°13.638 2°55.968 115.6 4.3 292 -999
2005-10-19 06:34:55 51°13.641 2°55.959 116.7 4.5 293 6.2
2005-10-19 06:35:00 51°13.643 2°55.95 117.2 4.7 294 -999
2005-10-19 06:35:06 51°13.647 2°55.938 118 4.8 294 -999
2005-10-19 06:35:10 51°13.649 2°55.93 118.9 4.9 294 -999
2005-10-19 06:35:16 51°13.653 2°55.918 119.4 5 295 -999
2005-10-19 06:35:20 51°13.655 2°55.91 119.5 5 296 5.8
2005-10-19 06:35:24 51°13.658 2°55.902 119.5 5 296 -999
2005-10-19 06:35:30 51°13.661 2°55.89 119.3 5.1 296 -999
2005-10-19 06:35:35 51°13.664 2°55.88 118.9 5.1 296 -999
2005-10-19 06:35:40 51°13.668 2°55.87 118.2 5.1 296 -999
2005-10-19 06:35:44 51°13.67 2°55.862 117.2 5.1 295 6
2005-10-19 06:35:50 51°13.673 2°55.849 116.3 5.1 295 -999
2005-10-19 06:35:55 51°13.676 2°55.839 115 5.1 294 -999
2005-10-19 06:36:00 51°13.679 2°55.829 113.3 5.1 293 -999
2005-10-19 06:36:04 51°13.681 2°55.821 111.4 4.8 290 -999
2005-10-19 06:36:10 51°13.683 2°55.809 109.5 4.7 290 -999
2005-10-19 06:36:15 51°13.685 2°55.8 107 4.5 287 -999
2005-10-19 06:36:20 51°13.686 2°55.79 105.3 4.4 286 -999
2005-10-19 06:36:25 51°13.687 2°55.781 103.3 4.2 284 -999
2005-10-19 06:36:30 51°13.689 2°55.772 100.6 4.2 283 -999
2005-10-19 06:36:35 51°13.69 2°55.764 98.7 4.1 282 -999
2005-10-19 06:36:40 51°13.691 2°55.755 96.4 3.8 279 -999
2005-10-19 06:36:45 51°13.692 2°55.748 94.1 3.6 277 -999
2005-10-19 06:36:50 51°13.692 2°55.741 91.9 3 277 -999
2005-10-19 06:36:55 51°13.692 2°55.737 88.3 1.9 278 5.1
2005-10-19 06:37:00 51°13.693 2°55.735 84.6 1.2 289 -999
2005-10-19 06:37:04 51°13.694 2°55.735 78.3 0.8 295 12.1
2005-10-19 06:37:10 51°13.695 2°55.735 72.4 0.7 7 11.8
2005-10-19 06:37:15 51°13.696 2°55.737 64.8 0.9 29 11.7
2005-10-19 06:37:20 51°13.698 2°55.738 58.6 1.4 23 11.2
2005-10-19 06:37:24 51°13.699 2°55.74 49.4 1.7 27 11.6
2005-10-19 06:37:30 51°13.702 2°55.741 43.7 1.7 26 12.1
2005-10-19 06:37:35 51°13.705 2°55.743 36.5 2.2 18 11.8
2005-10-19 06:37:40 51°13.709 2°55.743 29.5 2.5 10 11.5
2005-10-19 06:37:44 51°13.712 2°55.744 22.3 2.8 6 11.7
2005-10-19 06:37:50 51°13.717 2°55.743 15.1 3 358 11.7
2005-10-19 06:37:55 51°13.721 2°55.743 7.9 3.2 354 11
2005-10-19 06:38:00 51°13.726 2°55.741 0.7 3.2 353 10.1
2005-10-19 06:38:04 51°13.729 2°55.739 352.7 3.5 341 9.6
2005-10-19 06:38:10 51°13.735 2°55.734 347.8 4 336 8.9
2005-10-19 06:38:15 51°13.741 2°55.728 340.1 4.5 329 8.3
2005-10-19 06:38:20 51°13.747 2°55.721 332.6 4.5 329 7.8
2005-10-19 06:38:24 51°13.752 2°55.715 328.5 5.6 323 8.5
2005-10-19 06:38:30 51°13.76 2°55.705 327.6 6.1 324 7.8
2005-10-19 06:38:35 51°13.768 2°55.697 327.9 6.6 324 7.6
2005-10-19 06:38:39 51°13.774 2°55.689 328.5 7.1 325 7.5
2005-10-19 06:38:44 51°13.783 2°55.68 329.8 7.2 326 7.8
2005-10-19 06:38:50 51°13.794 2°55.668 331.4 7.8 327 8.1
2005-10-19 06:38:55 51°13.804 2°55.659 332.4 8.1 328 8.3
2005-10-19 06:39:00 51°13.814 2°55.65 333.1 8.5 330 8.7
2005-10-19 06:39:04 51°13.822 2°55.642 333.9 8.7 331 8.9
2005-10-19 06:39:10 51°13.836 2°55.631 335.9 8.9 334 8.6
2005-10-19 06:39:15 51°13.847 2°55.623 337.9 9.1 334 8.9
2005-10-19 06:39:20 51°13.859 2°55.614 338.8 9.3 335 8.8
2005-10-19 06:39:24 51°13.869 2°55.607 339.5 9.4 335 8.6
2005-10-19 06:39:30 51°13.883 2°55.597 340.2 9.5 335 8.5
2005-10-19 06:39:35 51°13.895 2°55.587 340.1 9.7 334 8.3
2005-10-19 06:39:40 51°13.908 2°55.578 339.6 9.8 335 8.2
2005-10-19 06:39:44 51°13.918 2°55.571 340.1 9.9 335 8.7
2005-10-19 06:39:50 51°13.933 2°55.56 340.4 9.9 335 8.5
2005-10-19 06:39:55 51°13.945 2°55.551 340.2 10 335 8.4
2005-10-19 06:40:00 51°13.958 2°55.542 340.7 10 337 8.4
2005-10-19 06:40:04 51°13.968 2°55.535 341.2 10 335 8.4
2005-10-19 06:40:10 51°13.984 2°55.524 341.1 10.1 336 8.5
2005-10-19 06:40:15 51°13.996 2°55.515 341.1 10.1 336 8.7
2005-10-19 06:40:20 51°14.009 2°55.506 341.5 10.1 336 8.8
2005-10-19 06:40:24 51°14.019 2°55.498 341.5 10.2 335 8.8
2005-10-19 06:40:30 51°14.035 2°55.487 340.8 10.2 336 8.8
2005-10-19 06:40:35 51°14.048 2°55.478 340.9 10.2 336 8.7
2005-10-19 06:40:39 51°14.058 2°55.47 340.7 10.4 334 8.4
2005-10-19 06:40:44 51°14.071 2°55.46 340.2 10.5 335 8.8
2005-10-19 06:40:50 51°14.087 2°55.447 340.1 10.7 334 8.8
2005-10-19 06:40:55 51°14.101 2°55.437 339.4 10.8 334 8.8
2005-10-19 06:40:59 51°14.112 2°55.428 339.4 10.9 333 8.9
2005-10-19 06:41:04 51°14.125 2°55.417 338.9 10.9 333 8.8
2005-10-19 06:41:10 51°14.142 2°55.404 338.2 11 332 8.8
2005-10-19 06:41:15 51°14.155 2°55.392 337.5 11.1 331 8.8
2005-10-19 06:41:19 51°14.166 2°55.382 336.5 11.2 330 8.8
2005-10-19 06:41:24 51°14.179 2°55.369 335.5 11.2 329 8.8
2005-10-19 06:41:30 51°14.194 2°55.352 334 11.2 326 -999
2005-10-19 06:41:35 51°14.207 2°55.337 331.9 11.2 325 8.8
2005-10-19 06:41:40 51°14.219 2°55.321 329.5 11.2 325 8.8
2005-10-19 06:41:44 51°14.228 2°55.308 326.8 11.3 319 8.8
2005-10-19 06:41:50 51°14.242 2°55.288 325.1 11.3 318 8.8
2005-10-19 06:41:55 51°14.253 2°55.27 323.1 11.3 317 8.8
2005-10-19 06:42:00 51°14.264 2°55.252 320.3 11.3 314 8.8
2005-10-19 06:42:04 51°14.272 2°55.236 318.3 11.4 312 8.9
2005-10-19 06:42:10 51°14.285 2°55.214 317.3 11.4 312 8.9
2005-10-19 06:42:15 51°14.295 2°55.194 316.5 11.5 309 9.4
2005-10-19 06:42:20 51°14.305 2°55.174 314.8 11.5 309 8.9
2005-10-19 06:42:24 51°14.312 2°55.158 314.2 11.5 309 8.9
2005-10-19 06:42:30 51°14.324 2°55.134 314 11.5 309 8.9
2005-10-19 06:42:34 51°14.333 2°55.118 313.9 11.6 309 9
2005-10-19 06:42:40 51°14.345 2°55.095 315 11.7 311 9
2005-10-19 06:42:44 51°14.354 2°55.079 315.2 11.8 310 9.1
2005-10-19 06:42:50 51°14.367 2°55.056 315.7 11.9 314 9.1
2005-10-19 06:42:55 51°14.38 2°55.038 318.9 12 317 8.9
2005-10-19 06:42:59 51°14.39 2°55.024 322.9 12.2 320 9
2005-10-19 06:43:04 51°14.404 2°55.007 326 12.4 321 9.1
2005-10-19 06:43:10 51°14.42 2°54.986 327.3 12.5 321 8.8
2005-10-19 06:43:15 51°14.434 2°54.969 328.4 12.6 322 8.8
2005-10-19 06:43:20 51°14.448 2°54.951 329.3 12.7 321 8.8
2005-10-19 06:43:24 51°14.458 2°54.937 329.4 12.8 320 8.7
2005-10-19 06:43:30 51°14.475 2°54.914 329.1 12.9 320 8.6
2005-10-19 06:43:35 51°14.487 2°54.894 328 13 316 8.4
2005-10-19 06:43:40 51°14.5 2°54.873 325.7 13 314 8.4
2005-10-19 06:43:44 51°14.509 2°54.856 324.2 13 313 8.3
2005-10-19 06:43:50 51°14.523 2°54.83 322.8 13 312 8.3
2005-10-19 06:43:55 51°14.535 2°54.808 321.8 13.1 311 8.2
2005-10-19 06:44:00 51°14.547 2°54.785 321.2 13.2 310 8.2
2005-10-19 06:44:04 51°14.557 2°54.767 320.8 13.2 310 8.2
2005-10-19 06:44:10 51°14.571 2°54.741 321 13.3 311 8.2
2005-10-19 06:44:15 51°14.583 2°54.719 321.5 13.3 311 8.2
2005-10-19 06:44:20 51°14.596 2°54.698 322.5 13.3 313 8.2
2005-10-19 06:44:25 51°14.609 2°54.677 323.8 13.3 313 8.2
2005-10-19 06:44:30 51°14.622 2°54.656 325.3 13.2 315 8.1
2005-10-19 06:44:35 51°14.635 2°54.636 326.2 13.2 316 8.1
2005-10-19 06:44:40 51°14.648 2°54.615 326.9 13.2 316 8
2005-10-19 06:44:44 51°14.659 2°54.599 327.5 13.2 317 8
2005-10-19 06:44:50 51°14.675 2°54.575 328 13.2 317 8
2005-10-19 06:44:55 51°14.688 2°54.555 328.1 13.2 317 8.1
2005-10-19 06:45:00 51°14.701 2°54.535 328.2 13.2 316 8
2005-10-19 06:45:04 51°14.712 2°54.518 328 13.2 316 8
2005-10-19 06:45:10 51°14.727 2°54.494 327.3 13.2 315 7.9
2005-10-19 06:45:15 51°14.74 2°54.473 326.6 13.2 314 7.9
2005-10-19 06:45:20 51°14.753 2°54.451 325.5 13.2 313 7.8
2005-10-19 06:45:25 51°14.765 2°54.43 324.3 13.2 312 7.9
2005-10-19 06:45:30 51°14.777 2°54.408 323.5 13.2 312 7.8
2005-10-19 06:45:35 51°14.789 2°54.386 322.4 13.2 311 7.7
2005-10-19 06:45:40 51°14.801 2°54.364 321.8 13.2 310 7.7
2005-10-19 06:45:44 51°14.81 2°54.346 321.1 13.2 311 7.7
2005-10-19 06:45:50 51°14.825 2°54.32 320.8 13.2 310 7.7
2005-10-19 06:45:55 51°14.836 2°54.297 320.8 13.2 310 7.8
2005-10-19 06:46:00 51°14.848 2°54.275 320.5 13.2 309 7.6
2005-10-19 06:46:04 51°14.857 2°54.257 319.6 13.2 309 -999
2005-10-19 06:46:10 51°14.871 2°54.229 319.3 13.2 309 5.6
2005-10-19 06:46:15 51°14.882 2°54.207 318.7 13.1 308 7.5
2005-10-19 06:46:20 51°14.893 2°54.184 318.2 13.1 308 7.3
2005-10-19 06:46:24 51°14.902 2°54.165 317.9 13 308 7.3
2005-10-19 06:46:30 51°14.915 2°54.138 317.8 13 308 7.2
2005-10-19 06:46:35 51°14.926 2°54.116 317.7 12.9 308 7.2
2005-10-19 06:46:40 51°14.937 2°54.093 317.6 12.9 308 7.1
2005-10-19 06:46:44 51°14.946 2°54.075 317.4 12.9 307 7.2
2005-10-19 06:46:50 51°14.959 2°54.048 317.3 12.9 308 7.1
2005-10-19 06:46:55 51°14.97 2°54.026 317.4 12.8 308 7.1
2005-10-19 06:47:00 51°14.982 2°54.005 318.1 12.8 310 7.1
2005-10-19 06:47:04 51°14.991 2°53.987 319.3 12.8 310 7.1
2005-10-19 06:47:08 51°15.001 2°53.97 320.4 12.8 311 7.1
2005-10-19 06:47:15 51°15.017 2°53.941 321.4 12.8 312 7.1
2005-10-19 06:47:20 51°15.03 2°53.92 322.2 12.8 313 5.4
2005-10-19 06:47:24 51°15.039 2°53.904 322.9 12.9 313 7.2
2005-10-19 06:47:30 51°15.054 2°53.88 323.4 12.9 314 5.4
2005-10-19 06:47:35 51°15.068 2°53.861 325 12.8 317 7.2
2005-10-19 06:47:40 51°15.081 2°53.842 327.2 12.8 319 5.4
2005-10-19 06:47:44 51°15.092 2°53.828 329.3 12.8 321 7.3
2005-10-19 06:47:50 51°15.109 2°53.807 331.3 12.8 322 7.4
2005-10-19 06:47:55 51°15.123 2°53.79 333 12.8 323 7.4
2005-10-19 06:48:00 51°15.137 2°53.774 334 12.8 323 7.5
2005-10-19 06:48:04 51°15.149 2°53.76 334.5 12.8 323 7.5
2005-10-19 06:48:10 51°15.165 2°53.738 333.9 12.9 321 7.6
2005-10-19 06:48:15 51°15.179 2°53.72 332.4 13 320 7.7
2005-10-19 06:48:20 51°15.192 2°53.7 330.7 13 318 7.7
2005-10-19 06:48:24 51°15.202 2°53.683 328.3 13.1 316 7.7
2005-10-19 06:48:30 51°15.217 2°53.657 325.1 13.2 313 7.9
2005-10-19 06:48:35 51°15.229 2°53.634 322.6 13.3 310 8
2005-10-19 06:48:40 51°15.24 2°53.612 320.8 13.3 310 8.1
2005-10-19 06:48:44 51°15.25 2°53.593 319.7 13.4 309 8.2
2005-10-19 06:48:50 51°15.264 2°53.566 319 13.3 309 8.2
2005-10-19 06:48:55 51°15.276 2°53.543 319 13.4 310 8.3
2005-10-19 06:49:00 51°15.288 2°53.52 320 13.5 311 8.4
2005-10-19 06:49:04 51°15.298 2°53.502 320.2 13.5 310 8.5
2005-10-19 06:49:10 51°15.313 2°53.475 320.6 13.5 311 8.4
2005-10-19 06:49:15 51°15.325 2°53.453 320.9 13.5 311 8.6
2005-10-19 06:49:20 51°15.337 2°53.429 321.1 13.6 309 8.6
2005-10-19 06:49:24 51°15.346 2°53.41 320 13.7 308 8.7
2005-10-19 06:49:30 51°15.359 2°53.381 318.3 13.6 307 8.7
2005-10-19 06:49:35 51°15.37 2°53.356 316.7 13.7 305 8.7
2005-10-19 06:49:40 51°15.38 2°53.33 315.3 13.7 304 8.8
2005-10-19 06:49:44 51°15.389 2°53.31 314.1 13.7 303 8.9
2005-10-19 06:49:50 51°15.401 2°53.28 313.5 13.7 303 9
2005-10-19 06:49:55 51°15.411 2°53.254 313.1 13.7 303 9
2005-10-19 06:50:00 51°15.421 2°53.229 312.8 13.7 303 9
2005-10-19 06:50:04 51°15.43 2°53.209 313.5 13.7 304 9
2005-10-19 06:50:10 51°15.443 2°53.179 314.2 13.7 305 9.1
2005-10-19 06:50:14 51°15.452 2°53.159 315.3 13.7 305 9.1
2005-10-19 06:50:20 51°15.465 2°53.13 315.9 13.6 306 9.1
2005-10-19 06:50:24 51°15.474 2°53.11 316.5 13.6 306 9.2
2005-10-19 06:50:30 51°15.487 2°53.081 316.9 13.6 306 9.2
2005-10-19 06:50:35 51°15.498 2°53.057 316.4 13.6 304 9.2
2005-10-19 06:50:40 51°15.508 2°53.031 315.1 13.6 304 9.3
2005-10-19 06:50:44 51°15.516 2°53.012 314.1 13.6 303 9.2
2005-10-19 06:50:50 51°15.528 2°52.98 312.8 13.6 302 9.4
2005-10-19 06:50:55 51°15.538 2°52.954 312.1 13.7 302 9.5
2005-10-19 06:51:00 51°15.548 2°52.929 311.7 13.7 301 9.5
2005-10-19 06:51:04 51°15.556 2°52.907 311.3 13.7 301 9.6
2005-10-19 06:51:10 51°15.567 2°52.876 310.7 13.8 300 9.7
2005-10-19 06:51:15 51°15.576 2°52.85 310.1 13.7 300 9.8
2005-10-19 06:51:20 51°15.586 2°52.823 309.8 13.8 300 9.8
2005-10-19 06:51:24 51°15.593 2°52.802 309.5 13.8 300 9.9
2005-10-19 06:51:30 51°15.605 2°52.77 309.3 13.8 300 10
2005-10-19 06:51:35 51°15.614 2°52.743 309.4 13.8 299 10
2005-10-19 06:51:40 51°15.624 2°52.717 309.6 13.8 300 10.1
2005-10-19 06:51:44 51°15.632 2°52.696 309.7 13.9 300 10.1
2005-10-19 06:51:50 51°15.643 2°52.664 309.6 13.9 300 10.2
2005-10-19 06:51:55 51°15.653 2°52.638 309.5 13.8 300 10.3
2005-10-19 06:52:00 51°15.662 2°52.611 309.4 13.8 300 10.3
2005-10-19 06:52:04 51°15.669 2°52.59 309.6 13.8 300 10.3
2005-10-19 06:52:10 51°15.681 2°52.557 309.2 13.9 299 10.4
2005-10-19 06:52:14 51°15.688 2°52.536 308.5 13.9 298 10.4
2005-10-19 06:52:20 51°15.699 2°52.504 308.1 13.9 298 10.5
2005-10-19 06:52:24 51°15.706 2°52.482 307.4 13.8 297 10.5
2005-10-19 06:52:30 51°15.716 2°52.449 307 13.9 298 10.6
2005-10-19 06:52:35 51°15.725 2°52.422 307 13.8 298 10.6
2005-10-19 06:52:39 51°15.733 2°52.401 307 13.8 298 10.7
2005-10-19 06:52:44 51°15.742 2°52.374 307.6 13.8 299 10.6
2005-10-19 06:52:50 51°15.753 2°52.342 307.9 13.8 299 10.7
2005-10-19 06:52:55 51°15.762 2°52.316 308.4 13.8 299 10.8
2005-10-19 06:53:00 51°15.771 2°52.289 308.8 13.8 299 10.8
2005-10-19 06:53:04 51°15.779 2°52.268 308.6 13.7 299 10.8
2005-10-19 06:53:10 51°15.79 2°52.235 308.4 13.8 298 10.9
2005-10-19 06:53:15 51°15.799 2°52.209 308.1 13.8 299 10.8
2005-10-19 06:53:20 51°15.808 2°52.181 308.1 13.8 299 10.8
2005-10-19 06:53:24 51°15.815 2°52.16 308.3 13.8 299 11
2005-10-19 06:53:30 51°15.826 2°52.128 308.4 13.8 297 10.9
2005-10-19 06:53:35 51°15.834 2°52.101 306.8 13.8 296 10.9
2005-10-19 06:53:40 51°15.843 2°52.073 306.1 13.8 297 10.9
2005-10-19 06:53:44 51°15.849 2°52.051 305.5 13.8 295 11
2005-10-19 06:53:50 51°15.859 2°52.019 304.8 13.8 295 11.1
2005-10-19 06:53:55 51°15.867 2°51.99 304.4 13.8 295 11.1
2005-10-19 06:54:00 51°15.876 2°51.963 303.5 13.9 295 11
2005-10-19 06:54:04 51°15.882 2°51.941 303.4 13.8 294 11.1
2005-10-19 06:54:10 51°15.892 2°51.907 303.5 13.8 296 11.1
2005-10-19 06:54:15 51°15.9 2°51.88 304 13.8 295 11.1
2005-10-19 06:54:20 51°15.908 2°51.853 304.3 13.8 296 11.2
2005-10-19 06:54:24 51°15.915 2°51.831 304.8 13.8 296 11.2
2005-10-19 06:54:30 51°15.926 2°51.797 304.9 13.8 296 11.2
2005-10-19 06:54:35 51°15.934 2°51.77 305.1 13.9 296 11.3
2005-10-19 06:54:40 51°15.942 2°51.743 304.9 13.8 296 11.2
2005-10-19 06:54:44 51°15.949 2°51.72 304.9 13.9 296 11.2
2005-10-19 06:54:50 51°15.959 2°51.687 304.9 13.8 296 11.2
2005-10-19 06:54:55 51°15.967 2°51.659 304.8 13.9 295 11.2
2005-10-19 06:55:00 51°15.976 2°51.632 304.5 13.9 296 11.3
2005-10-19 06:55:04 51°15.982 2°51.61 304.5 13.9 296 11.3
2005-10-19 06:55:10 51°15.992 2°51.577 304.4 13.9 296 11.3
2005-10-19 06:55:15 51°16 2°51.549 304.4 13.9 295 11.2
2005-10-19 06:55:20 51°16.009 2°51.521 304.5 13.9 296 11.2
2005-10-19 06:55:24 51°16.016 2°51.499 304.9 13.8 296 11.2
2005-10-19 06:55:30 51°16.026 2°51.466 305.1 13.9 296 11.2
2005-10-19 06:55:35 51°16.034 2°51.439 305.5 13.9 296 11.3
2005-10-19 06:55:40 51°16.043 2°51.412 305.5 13.8 296 11.2
2005-10-19 06:55:44 51°16.05 2°51.39 305.1 13.8 296 11.3
2005-10-19 06:55:50 51°16.06 2°51.356 304.9 13.8 296 11.2
2005-10-19 06:55:55 51°16.068 2°51.329 304.9 13.8 296 11.2
2005-10-19 06:56:00 51°16.077 2°51.302 305 13.8 296 11.3
2005-10-19 06:56:04 51°16.083 2°51.28 305.1 13.9 296 11.2
2005-10-19 06:56:10 51°16.094 2°51.247 305 13.9 296 11.3
2005-10-19 06:56:15 51°16.102 2°51.22 305.3 13.9 296 11.1
2005-10-19 06:56:20 51°16.111 2°51.192 305.3 13.8 296 11
2005-10-19 06:56:24 51°16.118 2°51.17 305.1 13.8 296 11
2005-10-19 06:56:30 51°16.127 2°51.137 305.1 13.8 296 10.7
2005-10-19 06:56:35 51°16.136 2°51.11 304.9 13.8 296 10.7
2005-10-19 06:56:40 51°16.144 2°51.083 304.8 13.7 296 10.3
2005-10-19 06:56:44 51°16.151 2°51.061 304.8 13.7 296 10
2005-10-19 06:56:50 51°16.161 2°51.028 304.8 13.7 296 10.1
2005-10-19 06:56:55 51°16.169 2°51.002 305.1 13.6 296 9.8
2005-10-19 06:57:00 51°16.178 2°50.975 305.4 13.5 297 9.6
2005-10-19 06:57:04 51°16.185 2°50.953 305.5 13.5 297 9.6
2005-10-19 06:57:10 51°16.195 2°50.922 305.8 13.5 297 9.6
2005-10-19 06:57:15 51°16.203 2°50.895 306.1 13.5 297 9.5
2005-10-19 06:57:20 51°16.212 2°50.868 306.1 13.5 297 9.4
2005-10-19 06:57:24 51°16.219 2°50.847 306.1 13.5 297 9.4
2005-10-19 06:57:30 51°16.229 2°50.815 305.9 13.5 297 9.2
2005-10-19 06:57:35 51°16.237 2°50.789 305.7 13.4 297 9.1
2005-10-19 06:57:40 51°16.245 2°50.762 305.7 13.4 297 8.8
2005-10-19 06:57:44 51°16.252 2°50.741 305.6 13.4 297 8.6
2005-10-19 06:57:50 51°16.262 2°50.709 305.8 13.4 297 8.5
2005-10-19 06:57:55 51°16.271 2°50.683 306.1 13.3 297 8.5
2005-10-19 06:58:00 51°16.279 2°50.656 306.2 13.3 297 8.5
2005-10-19 06:58:05 51°16.287 2°50.63 306.2 13.4 296 8.4
2005-10-19 06:58:10 51°16.295 2°50.604 305.8 13.4 297 8.3
2005-10-19 06:58:15 51°16.304 2°50.577 305.2 13.4 296 8.1
2005-10-19 06:58:20 51°16.311 2°50.55 304.8 13.3 295 7.8
2005-10-19 06:58:24 51°16.317 2°50.529 304.4 13.3 295 5.5
2005-10-19 06:58:30 51°16.327 2°50.497 304.1 13.2 296 6.8
2005-10-19 06:58:35 51°16.335 2°50.472 304.1 13 296 7.1
2005-10-19 06:58:40 51°16.343 2°50.447 304.6 12.8 297 7.5
2005-10-19 06:58:44 51°16.35 2°50.426 305.9 13 298 7.5
2005-10-19 06:58:50 51°16.361 2°50.395 307.7 13.1 301 7.7
2005-10-19 06:58:55 51°16.37 2°50.37 309.4 13.3 301 7.9
2005-10-19 06:59:00 51°16.38 2°50.345 310.7 13.4 303 8.2
2005-10-19 06:59:04 51°16.389 2°50.324 311.4 13.6 302 8.6
2005-10-19 06:59:10 51°16.401 2°50.295 311.7 13.7 303 9
2005-10-19 06:59:15 51°16.411 2°50.268 311.8 13.8 302 9.1
2005-10-19 06:59:20 51°16.42 2°50.241 310.7 13.9 301 9.3
2005-10-19 06:59:24 51°16.428 2°50.219 309.3 13.9 299 9.4
2005-10-19 06:59:30 51°16.439 2°50.187 308 13.9 298 9.3
2005-10-19 06:59:35 51°16.447 2°50.16 306.9 13.9 298 9.4
2005-10-19 06:59:40 51°16.456 2°50.132 306 13.9 298 9.5
2005-10-19 06:59:44 51°16.463 2°50.111 305.2 13.7 297 9.5
2005-10-19 06:59:50 51°16.473 2°50.078 305.2 13.7 298 9.6
2005-10-19 06:59:55 51°16.482 2°50.051 305.2 13.7 298 9.5
2005-10-19 07:00:00 51°16.491 2°50.024 305.8 13.7 298 9.6
2005-10-19 07:00:04 51°16.498 2°50.003 306.3 13.6 299 9.6
2005-10-19 07:00:10 51°16.509 2°49.972 307 13.6 299 9.8
2005-10-19 07:00:15 51°16.519 2°49.945 307.7 13.6 299 9.8
2005-10-19 07:00:20 51°16.528 2°49.92 307.8 13.6 300 10
2005-10-19 07:00:24 51°16.536 2°49.899 307.8 13.6 300 10.2
2005-10-19 07:00:30 51°16.548 2°49.869 308.4 13.6 301 10.6
2005-10-19 07:00:35 51°16.557 2°49.843 309 13.7 300 10.9
2005-10-19 07:00:40 51°16.568 2°49.817 309.5 13.7 301 11.1
2005-10-19 07:00:44 51°16.575 2°49.796 310.2 13.6 302 11.4
2005-10-19 07:00:50 51°16.588 2°49.766 310.5 13.6 303 11.9
2005-10-19 07:00:55 51°16.6 2°49.744 312.4 13.5 307 12.2
2005-10-19 07:01:00 51°16.613 2°49.723 317.6 13.3 313 12.6
2005-10-19 07:01:04 51°16.625 2°49.709 322.6 13.2 318 12.7
2005-10-19 07:01:10 51°16.642 2°49.69 328.8 12.9 326 12.8
2005-10-19 07:01:15 51°16.658 2°49.677 335 12.7 330 12.7
2005-10-19 07:01:20 51°16.674 2°49.668 341.8 12.5 338 12.7
2005-10-19 07:01:24 51°16.688 2°49.662 348.6 12.4 343 12.2
2005-10-19 07:01:30 51°16.707 2°49.653 352.7 12.4 344 11.8
2005-10-19 07:01:35 51°16.724 2°49.648 355.6 12.3 348 10.8
2005-10-19 07:01:40 51°16.741 2°49.643 357.6 12.2 349 10.2
2005-10-19 07:01:44 51°16.754 2°49.64 359.2 12.2 350 11.9
2005-10-19 07:01:50 51°16.775 2°49.635 0.8 12.2 351 11.2
2005-10-19 07:01:55 51°16.791 2°49.633 2.1 12.3 354 10
2005-10-19 07:02:00 51°16.808 2°49.63 3 12.2 354 8.8
2005-10-19 07:02:04 51°16.821 2°49.628 3.3 12 354 9.6
2005-10-19 07:02:10 51°16.841 2°49.625 2.8 11.9 354 9.5
2005-10-19 07:02:15 51°16.858 2°49.624 4 11.9 358 8.3
2005-10-19 07:02:20 51°16.874 2°49.623 6 11.9 359 8.1
2005-10-19 07:02:24 51°16.887 2°49.623 7.7 11.8 1 8
2005-10-19 07:02:30 51°16.907 2°49.625 8.7 11.7 2 7.9
2005-10-19 07:02:35 51°16.923 2°49.626 9.8 11.8 2 8
2005-10-19 07:02:40 51°16.939 2°49.629 10.5 11.6 6 8.1
2005-10-19 07:02:44 51°16.952 2°49.632 13.6 11.8 8 8
2005-10-19 07:02:50 51°16.972 2°49.638 15.4 11.9 10 8
2005-10-19 07:02:55 51°16.987 2°49.644 18.1 11.8 13 8.4
2005-10-19 07:03:00 51°17.004 2°49.652 21.1 11.8 13 7.3
2005-10-19 07:03:04 51°17.016 2°49.658 23.2 12 17 7.9
2005-10-19 07:03:10 51°17.035 2°49.668 24.3 11.9 18 8.6
2005-10-19 07:03:15 51°17.051 2°49.676 25.4 11.9 18 8.4
2005-10-19 07:03:20 51°17.066 2°49.686 26.3 11.9 20 8.8
2005-10-19 07:03:24 51°17.079 2°49.693 27.9 12.2 21 9.1
2005-10-19 07:03:30 51°17.098 2°49.706 28.9 12.3 21 8.1
2005-10-19 07:03:35 51°17.114 2°49.716 29.1 12.3 22 9.2
2005-10-19 07:03:40 51°17.13 2°49.726 29.7 12.2 22 8.9
2005-10-19 07:03:44 51°17.142 2°49.734 29.6 12.2 22 8.9
2005-10-19 07:03:50 51°17.161 2°49.746 29.6 12.3 22 9
2005-10-19 07:03:55 51°17.177 2°49.757 29.3 12.3 22 7.8
2005-10-19 07:04:00 51°17.192 2°49.767 29.7 12 22 8.8
2005-10-19 07:04:04 51°17.204 2°49.775 30.2 12 24 9.2
2005-10-19 07:04:10 51°17.222 2°49.788 30.3 11.9 24 9.5
2005-10-19 07:04:15 51°17.238 2°49.8 31.4 12.3 25 9.2
2005-10-19 07:04:20 51°17.253 2°49.811 32.2 12.4 25 9.5
2005-10-19 07:04:24 51°17.265 2°49.821 32.3 12.3 25 9.8
2005-10-19 07:04:30 51°17.284 2°49.834 32.8 12.2 25 9.9
2005-10-19 07:04:35 51°17.299 2°49.845 32.2 12.1 23 10.2
2005-10-19 07:04:40 51°17.315 2°49.856 31.3 12.2 24 10.2
2005-10-19 07:04:44 51°17.327 2°49.864 31.1 12.3 23 10
2005-10-19 07:04:50 51°17.346 2°49.878 31.2 12.3 25 10
2005-10-19 07:04:55 51°17.361 2°49.89 32.3 12.2 25 10
2005-10-19 07:05:00 51°17.376 2°49.902 33.3 12.1 28 10.4
2005-10-19 07:05:04 51°17.387 2°49.913 34.7 12.1 29 10.1
2005-10-19 07:05:10 51°17.404 2°49.929 36.9 12 31 10.4
2005-10-19 07:05:15 51°17.418 2°49.943 38 12 31 10.3
2005-10-19 07:05:20 51°17.433 2°49.958 39.1 12 33 9.9
2005-10-19 07:05:24 51°17.444 2°49.969 39.9 12 32 10.4
2005-10-19 07:05:30 51°17.461 2°49.987 40.1 12 34 10.9
2005-10-19 07:05:35 51°17.475 2°50.001 40.7 12 32 10.8
2005-10-19 07:05:40 51°17.489 2°50.015 40.3 12 33 10.9
2005-10-19 07:05:44 51°17.5 2°50.027 39.9 12.1 32 11
2005-10-19 07:05:50 51°17.517 2°50.044 39.8 12 33 10.9
2005-10-19 07:05:55 51°17.531 2°50.059 40 12 32 10.9
2005-10-19 07:06:00 51°17.545 2°50.073 40 12 33 11
2005-10-19 07:06:04 51°17.557 2°50.084 39.9 12 32 11
2005-10-19 07:06:10 51°17.574 2°50.101 39.7 12 32 11
2005-10-19 07:06:15 51°17.587 2°50.115 39.3 12 32 10.9
2005-10-19 07:06:20 51°17.601 2°50.129 39.2 12 31 11.1
2005-10-19 07:06:24 51°17.613 2°50.14 39.1 12 32 11.1
2005-10-19 07:06:30 51°17.63 2°50.156 39 12 31 11.1
2005-10-19 07:06:35 51°17.644 2°50.17 38.6 12 31 11.1
2005-10-19 07:06:40 51°17.658 2°50.183 38.7 12 30 11
2005-10-19 07:06:44 51°17.67 2°50.195 38.3 12 32 11.1
2005-10-19 07:06:50 51°17.687 2°50.211 38.7 12 31 11.2
2005-10-19 07:06:55 51°17.701 2°50.225 38.8 12 32 11.2
2005-10-19 07:07:00 51°17.715 2°50.238 39.1 12 31 11.2
2005-10-19 07:07:04 51°17.727 2°50.25 39.1 12 32 11.2
2005-10-19 07:07:08 51°17.738 2°50.261 39 12 31 11.3
2005-10-19 07:07:15 51°17.758 2°50.28 39 12 32 11.3
2005-10-19 07:07:20 51°17.772 2°50.293 38.9 11.9 31 11.3
2005-10-19 07:07:24 51°17.784 2°50.304 39.1 11.9 31 11.2
2005-10-19 07:07:30 51°17.801 2°50.321 39.1 12 31 11.2
2005-10-19 07:07:35 51°17.815 2°50.334 38.9 11.9 30 11.3
2005-10-19 07:07:40 51°17.829 2°50.347 38.7 12 32 11.2
2005-10-19 07:07:44 51°17.841 2°50.358 38.4 12 29 11.2
2005-10-19 07:07:50 51°17.858 2°50.375 38.4 12 30 11.3
2005-10-19 07:07:55 51°17.872 2°50.388 38.6 11.9 30 11.3
2005-10-19 07:08:00 51°17.886 2°50.402 38.6 11.9 32 11.3
2005-10-19 07:08:04 51°17.897 2°50.413 39.2 11.9 31 11.3
2005-10-19 07:08:10 51°17.914 2°50.43 39.4 11.9 32 11.4
2005-10-19 07:08:15 51°17.928 2°50.444 39.3 12 32 11.4
2005-10-19 07:08:19 51°17.94 2°50.454 39.4 12 31 11.4
2005-10-19 07:08:24 51°17.954 2°50.468 39.1 12 31 11.4
2005-10-19 07:08:30 51°17.971 2°50.484 38.5 11.9 31 11.4
2005-10-19 07:08:35 51°17.985 2°50.498 38.5 11.9 31 11.4
2005-10-19 07:08:40 51°18 2°50.511 38.4 12 30 11.4
2005-10-19 07:08:44 51°18.011 2°50.522 38.1 11.9 31 11.5
2005-10-19 07:08:50 51°18.028 2°50.538 38.5 12 30 11.6
2005-10-19 07:08:55 51°18.042 2°50.552 38.7 11.9 32 11.6
2005-10-19 07:09:00 51°18.057 2°50.565 38.8 11.9 32 11.5
2005-10-19 07:09:04 51°18.068 2°50.576 38.4 11.9 30 11.5
2005-10-19 07:09:10 51°18.085 2°50.592 38.2 11.9 30 11.6
2005-10-19 07:09:15 51°18.1 2°50.605 38 11.9 30 11.6
2005-10-19 07:09:20 51°18.114 2°50.618 37.7 12 30 11.7
2005-10-19 07:09:24 51°18.126 2°50.629 37.9 11.9 31 11.6
2005-10-19 07:09:30 51°18.143 2°50.645 38.2 11.9 30 11.7
2005-10-19 07:09:35 51°18.157 2°50.658 38.3 11.9 31 11.7
2005-10-19 07:09:40 51°18.171 2°50.672 38.5 12 30 11.7
2005-10-19 07:09:44 51°18.182 2°50.683 38.8 11.9 32 11.8
2005-10-19 07:09:50 51°18.199 2°50.699 39.1 11.9 31 11.8
2005-10-19 07:09:55 51°18.213 2°50.713 39.2 11.9 32 11.8
2005-10-19 07:10:00 51°18.228 2°50.727 39 11.9 32 11.8
2005-10-19 07:10:04 51°18.239 2°50.737 38.4 11.9 30 12
2005-10-19 07:10:10 51°18.256 2°50.754 38.3 11.9 31 11.7
2005-10-19 07:10:15 51°18.27 2°50.767 38.4 11.9 31 11.8
2005-10-19 07:10:20 51°18.285 2°50.78 38.5 11.9 31 12
2005-10-19 07:10:25 51°18.298 2°50.794 38.7 11.9 30 12
2005-10-19 07:10:30 51°18.313 2°50.808 38.4 11.9 31 12
2005-10-19 07:10:35 51°18.327 2°50.821 38.7 11.9 31 12.1
2005-10-19 07:10:40 51°18.341 2°50.835 38.5 11.9 31 12.1
2005-10-19 07:10:44 51°18.353 2°50.845 38.7 11.9 30 12.2
2005-10-19 07:10:50 51°18.369 2°50.861 38.4 11.9 31 12.2
2005-10-19 07:10:55 51°18.384 2°50.874 38.4 12 30 12.2
2005-10-19 07:11:00 51°18.398 2°50.888 38.3 11.9 31 12.2
2005-10-19 07:11:05 51°18.412 2°50.901 38.3 12 29 12.3
2005-10-19 07:11:10 51°18.426 2°50.914 37.7 11.9 30 12.3
2005-10-19 07:11:15 51°18.441 2°50.927 38.1 11.8 30 12.3
2005-10-19 07:11:20 51°18.455 2°50.942 38.3 11.9 31 12.2
2005-10-19 07:11:24 51°18.466 2°50.952 38.9 11.9 31 12.3
2005-10-19 07:11:30 51°18.483 2°50.969 39.1 11.9 31 12.4
2005-10-19 07:11:35 51°18.497 2°50.982 39 11.9 31 12.4
2005-10-19 07:11:40 51°18.511 2°50.995 38.6 11.8 30 12.4
2005-10-19 07:11:44 51°18.523 2°51.005 38.4 11.9 30 12.5
2005-10-19 07:11:50 51°18.54 2°51.021 38.2 12 29 12.5
2005-10-19 07:11:55 51°18.555 2°51.033 37.7 11.9 29 12.5
2005-10-19 07:12:00 51°18.569 2°51.047 37.8 11.9 29 12.5
2005-10-19 07:12:04 51°18.581 2°51.057 38.4 11.9 30 12.6
2005-10-19 07:12:10 51°18.598 2°51.074 38.8 11.9 30 12.6
2005-10-19 07:12:15 51°18.612 2°51.087 39.2 11.9 30 12.6
2005-10-19 07:12:20 51°18.626 2°51.101 39.1 11.9 31 12.6
2005-10-19 07:12:24 51°18.637 2°51.111 39.4 11.8 31 12.8
2005-10-19 07:12:30 51°18.654 2°51.126 38.7 11.9 29 12.8
2005-10-19 07:12:35 51°18.669 2°51.14 38.5 11.9 30 12.7
2005-10-19 07:12:40 51°18.683 2°51.153 38.4 11.9 29 12.8
2005-10-19 07:12:44 51°18.694 2°51.163 38.1 11.8 30 12.8
2005-10-19 07:12:50 51°18.711 2°51.179 38.5 11.8 30 12.8
2005-10-19 07:12:55 51°18.726 2°51.192 38.2 11.8 31 12.8
2005-10-19 07:13:00 51°18.74 2°51.205 38.5 11.8 30 12.9
2005-10-19 07:13:04 51°18.751 2°51.216 38.7 11.9 31 12.9
2005-10-19 07:13:10 51°18.768 2°51.231 38.7 11.9 29 12.9
2005-10-19 07:13:15 51°18.783 2°51.245 38.4 11.9 30 12.9
2005-10-19 07:13:20 51°18.797 2°51.258 38.6 12 29 13
2005-10-19 07:13:24 51°18.808 2°51.268 38.7 11.9 30 13
2005-10-19 07:13:30 51°18.826 2°51.284 38.5 11.9 30 13.1
2005-10-19 07:13:35 51°18.84 2°51.297 38.5 11.9 30 13.1
2005-10-19 07:13:40 51°18.854 2°51.309 38.4 11.9 30 13.1
2005-10-19 07:13:44 51°18.865 2°51.32 38.4 11.8 30 13.1
2005-10-19 07:13:50 51°18.883 2°51.335 38.4 11.8 29 13.2
2005-10-19 07:13:55 51°18.897 2°51.348 38 11.8 30 13.2
2005-10-19 07:14:00 51°18.912 2°51.361 38.4 11.8 29 13.2
2005-10-19 07:14:04 51°18.923 2°51.371 38.1 11.9 29 13.1
2005-10-19 07:14:10 51°18.94 2°51.386 38 11.8 29 12.9
2005-10-19 07:14:15 51°18.954 2°51.4 37.7 11.8 30 13.3
2005-10-19 07:14:20 51°18.969 2°51.412 38.7 11.8 30 13.5
2005-10-19 07:14:24 51°18.98 2°51.423 38.7 11.8 30 13.2
2005-10-19 07:14:30 51°18.996 2°51.438 39.4 11.8 30 13.1
2005-10-19 07:14:35 51°19.01 2°51.452 39.1 11.8 31 13.4
2005-10-19 07:14:40 51°19.025 2°51.465 39.3 11.7 31 13.5
2005-10-19 07:14:44 51°19.036 2°51.476 38.9 11.8 30 13.7
2005-10-19 07:14:50 51°19.053 2°51.491 38.4 11.8 30 13.8
2005-10-19 07:14:55 51°19.067 2°51.503 38.5 11.8 29 13.8
2005-10-19 07:15:00 51°19.082 2°51.516 38.2 11.9 30 13.9
2005-10-19 07:15:05 51°19.096 2°51.529 38.4 11.8 29 13.9
2005-10-19 07:15:10 51°19.11 2°51.542 38.4 11.8 30 13.9
2005-10-19 07:15:15 51°19.124 2°51.555 38.6 11.8 30 14
2005-10-19 07:15:20 51°19.138 2°51.567 38.8 11.7 29 13.9
2005-10-19 07:15:24 51°19.15 2°51.577 38.4 11.8 29 14
2005-10-19 07:15:30 51°19.167 2°51.593 38.4 11.8 30 13.8
2005-10-19 07:15:35 51°19.181 2°51.606 38.6 11.8 30 13.8
2005-10-19 07:15:40 51°19.195 2°51.619 38.5 11.8 30 14
2005-10-19 07:15:44 51°19.206 2°51.629 38.8 11.7 30 14
2005-10-19 07:15:50 51°19.224 2°51.645 38.5 11.8 29 14.1
2005-10-19 07:15:55 51°19.238 2°51.658 38.5 11.8 30 14.1
2005-10-19 07:16:00 51°19.252 2°51.671 38.7 11.7 30 14.1
2005-10-19 07:16:04 51°19.264 2°51.682 38.7 11.7 29 14.1
2005-10-19 07:16:10 51°19.28 2°51.697 38.3 11.7 30 14
2005-10-19 07:16:14 51°19.292 2°51.707 38.3 11.8 29 14.2
2005-10-19 07:16:20 51°19.309 2°51.722 38.4 11.8 29 14.2
2005-10-19 07:16:24 51°19.32 2°51.732 38 11.8 29 14.2
2005-10-19 07:16:30 51°19.337 2°51.747 37.9 11.8 29 14.2
2005-10-19 07:16:35 51°19.352 2°51.76 38 11.8 29 14.2
2005-10-19 07:16:40 51°19.366 2°51.774 38.3 11.8 30 14.2
2005-10-19 07:16:44 51°19.377 2°51.785 39.3 11.8 32 14.3
2005-10-19 07:16:50 51°19.394 2°51.801 40.4 11.8 32 14.2
2005-10-19 07:16:55 51°19.407 2°51.815 41 11.7 32 14.4
2005-10-19 07:17:00 51°19.421 2°51.83 41.2 11.7 33 14.2
2005-10-19 07:17:04 51°19.432 2°51.841 41.4 11.7 33 14.3
2005-10-19 07:17:10 51°19.448 2°51.858 41.4 11.7 33 14.3
2005-10-19 07:17:15 51°19.462 2°51.873 42 11.7 33 14.3
2005-10-19 07:17:20 51°19.476 2°51.887 42 11.8 33 14.2
2005-10-19 07:17:24 51°19.487 2°51.899 42 11.8 34 14.3
2005-10-19 07:17:30 51°19.504 2°51.915 42 11.9 32 14.3
2005-10-19 07:17:35 51°19.517 2°51.93 41.1 11.8 34 14.4
2005-10-19 07:17:40 51°19.531 2°51.944 41.8 11.8 32 14.2
2005-10-19 07:17:44 51°19.542 2°51.956 41.3 11.8 32 14.2
2005-10-19 07:17:50 51°19.558 2°51.972 41.6 11.7 34 14.2
2005-10-19 07:17:55 51°19.572 2°51.986 41.5 11.8 33 14.3
2005-10-19 07:18:00 51°19.586 2°52 41.4 11.8 33 14.4
2005-10-19 07:18:04 51°19.597 2°52.011 41.5 11.7 33 14.4
2005-10-19 07:18:10 51°19.613 2°52.029 41.7 11.7 33 14.4
2005-10-19 07:18:15 51°19.627 2°52.042 41.7 11.7 33 14.4
2005-10-19 07:18:20 51°19.641 2°52.057 41.2 11.7 32 14.4
2005-10-19 07:18:24 51°19.652 2°52.068 41.6 11.8 33 14.5
2005-10-19 07:18:30 51°19.668 2°52.086 41.8 11.8 33 14.6
2005-10-19 07:18:35 51°19.682 2°52.099 41.7 11.8 32 14.6
2005-10-19 07:18:40 51°19.696 2°52.113 41.4 11.7 33 14.6
2005-10-19 07:18:44 51°19.707 2°52.124 41.1 11.8 32 14.6
2005-10-19 07:18:50 51°19.723 2°52.14 40.4 11.8 31 14.7
2005-10-19 07:18:55 51°19.737 2°52.155 41.1 11.8 32 14.7
2005-10-19 07:19:00 51°19.751 2°52.169 41.5 11.8 34 14.7
2005-10-19 07:19:04 51°19.762 2°52.181 41.9 11.8 33 14.6
2005-10-19 07:19:10 51°19.779 2°52.198 42.2 11.8 33 14.5
2005-10-19 07:19:15 51°19.792 2°52.212 41.3 11.8 32 14.6
2005-10-19 07:19:20 51°19.806 2°52.226 41.6 11.8 34 14.7
2005-10-19 07:19:24 51°19.817 2°52.238 41.6 11.8 33 14.6
2005-10-19 07:19:30 51°19.834 2°52.254 41.4 11.8 32 14.8
2005-10-19 07:19:35 51°19.848 2°52.269 41.2 11.8 32 14.8
2005-10-19 07:19:40 51°19.862 2°52.282 41 11.8 32 14.7
2005-10-19 07:19:44 51°19.872 2°52.294 40.8 11.8 33 14.8
2005-10-19 07:19:50 51°19.889 2°52.31 40.9 11.8 32 14.8
2005-10-19 07:19:55 51°19.903 2°52.324 41.3 11.7 33 14.8
2005-10-19 07:20:00 51°19.916 2°52.339 41.4 11.7 33 14.7
2005-10-19 07:20:04 51°19.927 2°52.35 42.1 11.7 32 14.8
2005-10-19 07:20:10 51°19.943 2°52.367 41.3 11.7 34 14.6
2005-10-19 07:20:15 51°19.957 2°52.381 41.7 11.7 31 14.7
2005-10-19 07:20:20 51°19.971 2°52.394 40.9 11.8 33 14.7
2005-10-19 07:20:24 51°19.982 2°52.405 40.9 11.7 32 14.9
2005-10-19 07:20:30 51°19.998 2°52.422 40.8 11.8 32 14.8
2005-10-19 07:20:35 51°20.012 2°52.436 40.9 11.8 32 14.7
2005-10-19 07:20:40 51°20.026 2°52.449 41 11.6 33 14.8
2005-10-19 07:20:44 51°20.037 2°52.461 41.2 11.6 33 14.8
2005-10-19 07:20:50 51°20.053 2°52.478 41.7 11.7 33 14.8
2005-10-19 07:20:55 51°20.067 2°52.492 41.3 11.7 32 14.9
2005-10-19 07:21:00 51°20.08 2°52.506 40.9 11.7 32 14.8
2005-10-19 07:21:04 51°20.091 2°52.517 40.8 11.7 32 14.9
2005-10-19 07:21:10 51°20.108 2°52.533 40.6 11.6 32 14.9
2005-10-19 07:21:15 51°20.121 2°52.546 40.3 11.7 32 14.8
2005-10-19 07:21:20 51°20.135 2°52.559 39.9 11.7 31 14.9
2005-10-19 07:21:24 51°20.146 2°52.57 39.7 11.7 31 14.8
2005-10-19 07:21:30 51°20.163 2°52.587 39.9 11.6 32 14.7
2005-10-19 07:21:35 51°20.177 2°52.6 40.4 11.7 31 14.9
2005-10-19 07:21:40 51°20.19 2°52.614 40.4 11.7 33 14.9
2005-10-19 07:21:44 51°20.201 2°52.623 40.6 11.7 31 14.9
2005-10-19 07:21:50 51°20.218 2°52.64 39.7 11.7 30 14.8
2005-10-19 07:21:55 51°20.232 2°52.653 40.1 11.7 30 14.9
2005-10-19 07:22:00 51°20.246 2°52.667 40.1 11.7 32 15
2005-10-19 07:22:04 51°20.257 2°52.677 40.1 11.7 30 14.9
2005-10-19 07:22:10 51°20.274 2°52.693 39.9 11.7 32 14.9
2005-10-19 07:22:15 51°20.288 2°52.706 40 11.7 30 14.9
2005-10-19 07:22:20 51°20.301 2°52.72 39.9 11.8 30 15
2005-10-19 07:22:24 51°20.313 2°52.73 39.9 11.7 29 14.9
2005-10-19 07:22:30 51°20.329 2°52.745 39.2 11.7 30 14.9
2005-10-19 07:22:35 51°20.344 2°52.758 38.5 11.7 28 14.9
2005-10-19 07:22:40 51°20.358 2°52.77 37.9 11.6 29 14.9
2005-10-19 07:22:44 51°20.369 2°52.781 37.7 11.6 29 15
2005-10-19 07:22:50 51°20.386 2°52.795 38.3 11.6 30 15
2005-10-19 07:22:55 51°20.4 2°52.808 38.3 11.6 30 14.9
2005-10-19 07:23:00 51°20.414 2°52.82 38.2 11.6 29 14.9
2005-10-19 07:23:04 51°20.425 2°52.83 37.9 11.6 29 14.9
2005-10-19 07:23:10 51°20.442 2°52.845 38.1 11.6 29 14.9
2005-10-19 07:23:15 51°20.456 2°52.858 38.1 11.5 29 14.9
2005-10-19 07:23:20 51°20.47 2°52.87 37.7 11.6 29 14.9
2005-10-19 07:23:25 51°20.484 2°52.882 37.8 11.6 29 15
2005-10-19 07:23:30 51°20.499 2°52.894 37.4 11.6 27 14.9
2005-10-19 07:23:35 51°20.514 2°52.904 35.9 11.6 25 14.9
2005-10-19 07:23:40 51°20.528 2°52.915 34.8 11.8 25 14.9
2005-10-19 07:23:44 51°20.541 2°52.923 33.8 11.8 22 14.9
2005-10-19 07:23:50 51°20.559 2°52.934 32.2 11.8 21 14.9
2005-10-19 07:23:55 51°20.574 2°52.942 30.2 11.8 18 14.9
2005-10-19 07:24:00 51°20.59 2°52.951 29.5 11.8 20 14.9
2005-10-19 07:24:04 51°20.603 2°52.957 28.4 11.8 17 15
2005-10-19 07:24:10 51°20.621 2°52.966 27.6 11.9 17 15
2005-10-19 07:24:15 51°20.637 2°52.974 27.7 11.9 17 15
2005-10-19 07:24:20 51°20.653 2°52.982 27.5 11.9 18 15
2005-10-19 07:24:24 51°20.665 2°52.988 27.1 11.8 17 14.9
2005-10-19 07:24:30 51°20.684 2°52.998 27.3 11.9 18 14.9
2005-10-19 07:24:35 51°20.7 2°53.006 27.3 11.9 19 15
2005-10-19 07:24:40 51°20.715 2°53.014 27.8 11.9 18 15
2005-10-19 07:24:44 51°20.728 2°53.021 28.2 11.8 19 15.2
2005-10-19 07:24:50 51°20.746 2°53.031 28.3 11.8 18 15.1
2005-10-19 07:24:55 51°20.762 2°53.039 27.8 11.8 18 15
2005-10-19 07:25:00 51°20.778 2°53.047 27.3 11.8 17 15.1
2005-10-19 07:25:04 51°20.79 2°53.053 27.2 11.8 18 15.1
2005-10-19 07:25:10 51°20.809 2°53.063 27.2 11.9 17 15.2
2005-10-19 07:25:15 51°20.825 2°53.07 27.3 11.9 17 15.1
2005-10-19 07:25:20 51°20.84 2°53.079 27.5 11.9 18 14.9
2005-10-19 07:25:24 51°20.853 2°53.085 27.5 11.9 18 14.9
2005-10-19 07:25:30 51°20.872 2°53.094 27.7 11.9 18 14.9
2005-10-19 07:25:35 51°20.887 2°53.102 27.8 11.9 17 14.9
2005-10-19 07:25:40 51°20.903 2°53.11 27.9 11.8 19 15
2005-10-19 07:25:44 51°20.915 2°53.117 27.7 11.8 18 15
2005-10-19 07:25:50 51°20.934 2°53.127 27.9 11.8 18 14.7
2005-10-19 07:25:55 51°20.95 2°53.134 27.8 11.9 18 14.8
2005-10-19 07:26:00 51°20.965 2°53.142 27.5 11.8 17 14.8
2005-10-19 07:26:04 51°20.978 2°53.148 27.2 11.7 18 14.7
2005-10-19 07:26:10 51°20.997 2°53.157 27.4 11.9 16 14.8
2005-10-19 07:26:15 51°21.013 2°53.165 27.2 11.8 18 14.7
2005-10-19 07:26:20 51°21.028 2°53.172 26.8 11.9 14 14.9
2005-10-19 07:26:24 51°21.041 2°53.178 26.2 11.8 17 14.8
2005-10-19 07:26:30 51°21.06 2°53.186 26.2 12 14 14.7
2005-10-19 07:26:35 51°21.076 2°53.194 25.8 11.9 17 14.6
2005-10-19 07:26:40 51°21.093 2°53.2 26 12 15 14.6
2005-10-19 07:26:44 51°21.105 2°53.207 25.9 12 17 14.7
2005-10-19 07:26:50 51°21.124 2°53.215 25.6 11.9 14 14.5
2005-10-19 07:26:55 51°21.14 2°53.222 25.8 11.9 17 14.6
2005-10-19 07:27:00 51°21.156 2°53.229 26.1 12 15 14.5
2005-10-19 07:27:05 51°21.172 2°53.236 26.1 12 16 14.5
2005-10-19 07:27:10 51°21.188 2°53.243 25.9 11.9 15 14.5
2005-10-19 07:27:15 51°21.204 2°53.25 25.8 11.9 16 14.4
2005-10-19 07:27:20 51°21.22 2°53.258 26.2 11.9 16 14.6
2005-10-19 07:27:24 51°21.233 2°53.264 26.6 11.9 16 14.5
2005-10-19 07:27:30 51°21.252 2°53.273 26.7 11.9 16 14.4
2005-10-19 07:27:35 51°21.268 2°53.28 26.8 12 16 14.3
2005-10-19 07:27:40 51°21.284 2°53.287 26.6 11.9 16 13.9
2005-10-19 07:27:44 51°21.296 2°53.293 26.3 11.9 16 13.9
2005-10-19 07:27:50 51°21.316 2°53.301 26.4 11.9 15 13.8
2005-10-19 07:27:55 51°21.332 2°53.309 26.1 11.9 15 13.8
2005-10-19 07:28:00 51°21.348 2°53.315 25.4 12 15 14.2
2005-10-19 07:28:04 51°21.36 2°53.321 26 12 16 14.1
2005-10-19 07:28:10 51°21.38 2°53.33 26.1 12 16 14.3
2005-10-19 07:28:15 51°21.396 2°53.337 26.3 12 16 14.4
2005-10-19 07:28:20 51°21.412 2°53.343 26.1 12 16 14.5
2005-10-19 07:28:24 51°21.424 2°53.349 25.7 11.9 16 14.5
2005-10-19 07:28:30 51°21.444 2°53.358 25.9 11.9 15 14.7
2005-10-19 07:28:35 51°21.459 2°53.364 26 11.9 15 14.7
2005-10-19 07:28:40 51°21.476 2°53.371 25.6 11.9 15 14.7
2005-10-19 07:28:44 51°21.489 2°53.376 24.9 11.9 14 14.9
2005-10-19 07:28:50 51°21.508 2°53.383 24.8 12 14 14.9
2005-10-19 07:28:55 51°21.524 2°53.39 24 12 13 14.9
2005-10-19 07:29:00 51°21.54 2°53.396 23.9 12 15 15.1
2005-10-19 07:29:05 51°21.556 2°53.402 24.2 12 12 15.2
2005-10-19 07:29:10 51°21.573 2°53.409 23.9 12 14 15.1
2005-10-19 07:29:15 51°21.589 2°53.415 23.8 12 13 15.2
2005-10-19 07:29:20 51°21.606 2°53.421 23.7 12 13 15.2
2005-10-19 07:29:24 51°21.619 2°53.425 23.3 12 13 15.4
2005-10-19 07:29:30 51°21.637 2°53.433 23 12 13 15.4
2005-10-19 07:29:35 51°21.654 2°53.439 23.3 12 14 15.6
2005-10-19 07:29:40 51°21.67 2°53.445 23.9 12 15 15.5
2005-10-19 07:29:44 51°21.683 2°53.45 23.9 12 13 15.6
2005-10-19 07:29:50 51°21.702 2°53.457 24 11.9 14 15.8
2005-10-19 07:29:55 51°21.718 2°53.464 23.8 11.9 14 15.8
2005-10-19 07:30:00 51°21.734 2°53.47 23.8 11.9 14 16
2005-10-19 07:30:04 51°21.747 2°53.475 23.6 12 14 16.1
2005-10-19 07:30:10 51°21.766 2°53.483 24.2 11.9 14 16.3
2005-10-19 07:30:15 51°21.783 2°53.49 24.5 12 15 16.5
2005-10-19 07:30:20 51°21.798 2°53.497 24.7 12 15 16.7
2005-10-19 07:30:24 51°21.811 2°53.502 25.1 12 15 16.7
2005-10-19 07:30:30 51°21.831 2°53.51 24.7 12 14 17
2005-10-19 07:30:35 51°21.847 2°53.516 24.1 12.1 15 17.1
2005-10-19 07:30:40 51°21.863 2°53.523 23.7 12.1 14 17.2
2005-10-19 07:30:44 51°21.876 2°53.528 23.9 12.1 13 17.3
2005-10-19 07:30:50 51°21.896 2°53.536 24.5 12.1 16 17.3
2005-10-19 07:30:55 51°21.911 2°53.543 24.4 12.1 14 17.5
2005-10-19 07:31:00 51°21.928 2°53.549 24.3 12.1 16 17.6
2005-10-19 07:31:04 51°21.941 2°53.555 24.5 12 14 17.7
2005-10-19 07:31:10 51°21.96 2°53.564 24.6 12.1 15 17.7
2005-10-19 07:31:15 51°21.976 2°53.57 24.8 12.1 15 17.8
2005-10-19 07:31:20 51°21.992 2°53.577 24.5 12 15 17.8
2005-10-19 07:31:24 51°22.005 2°53.582 24.3 12.1 14 18
2005-10-19 07:31:30 51°22.025 2°53.59 24.3 12.1 15 18.1
2005-10-19 07:31:35 51°22.041 2°53.597 23.7 12.2 13 18
2005-10-19 07:31:40 51°22.058 2°53.603 23.7 12.1 13 18
2005-10-19 07:31:44 51°22.071 2°53.609 23.8 12.1 14 18.1
2005-10-19 07:31:50 51°22.091 2°53.617 23.6 12.1 14 18.2
2005-10-19 07:31:55 51°22.107 2°53.624 24 12.1 15 18.3
2005-10-19 07:32:00 51°22.123 2°53.63 24.3 12.2 14 18.5
2005-10-19 07:32:04 51°22.136 2°53.636 23.9 12.1 15 18.7
2005-10-19 07:32:10 51°22.156 2°53.643 24.4 12.1 14 18.7
2005-10-19 07:32:15 51°22.172 2°53.65 23.9 12.1 14 19
2005-10-19 07:32:20 51°22.189 2°53.656 23.4 12.2 13 19.1
2005-10-19 07:32:24 51°22.202 2°53.66 22.3 12.2 11 19.2
2005-10-19 07:32:30 51°22.222 2°53.668 21.7 12.1 13 19.2
2005-10-19 07:32:35 51°22.238 2°53.673 21.7 12.2 11 19.4
2005-10-19 07:32:40 51°22.255 2°53.678 21.1 12.2 11 19.6
2005-10-19 07:32:44 51°22.268 2°53.681 21 12.2 10 19.9
2005-10-19 07:32:50 51°22.288 2°53.687 20 12.3 9 19.9
2005-10-19 07:32:55 51°22.305 2°53.69 19.5 12.2 9 20.1
2005-10-19 07:33:00 51°22.322 2°53.694 19 12.2 8 20.4
2005-10-19 07:33:04 51°22.335 2°53.698 18.8 12.2 9 20.5
2005-10-19 07:33:10 51°22.355 2°53.704 19.1 12.2 9 20.8
2005-10-19 07:33:15 51°22.372 2°53.708 19.9 12.2 9 20.8
2005-10-19 07:33:20 51°22.388 2°53.713 20.1 12.1 11 20.9
2005-10-19 07:33:24 51°22.401 2°53.717 20.3 12.2 10 21
2005-10-19 07:33:30 51°22.421 2°53.722 19.9 12.2 10 21.2
2005-10-19 07:33:35 51°22.437 2°53.727 19.9 12.2 10 21.3
2005-10-19 07:33:40 51°22.454 2°53.731 20.2 12.2 10 21.3
2005-10-19 07:33:44 51°22.468 2°53.735 19.4 12.3 9 21.7
2005-10-19 07:33:50 51°22.487 2°53.74 19.1 12.1 9 21.8
2005-10-19 07:33:55 51°22.504 2°53.744 19.1 12.2 8 21.8
2005-10-19 07:34:00 51°22.521 2°53.749 18.9 12.1 10 21.8
2005-10-19 07:34:04 51°22.534 2°53.752 19.2 12.2 9 21.9
2005-10-19 07:34:10 51°22.554 2°53.757 19.5 12.1 10 22.1
2005-10-19 07:34:15 51°22.57 2°53.762 19.8 12.1 10 21.9
2005-10-19 07:34:20 51°22.587 2°53.767 20.2 12.1 10 21.7
2005-10-19 07:34:24 51°22.6 2°53.771 20.4 12.1 11 21.9
2005-10-19 07:34:30 51°22.62 2°53.777 20.3 12.1 11 21.5
2005-10-19 07:34:35 51°22.636 2°53.781 20.3 12.1 11 21.4
2005-10-19 07:34:40 51°22.653 2°53.786 20.4 12.1 10 21.4
2005-10-19 07:34:44 51°22.666 2°53.791 20.6 12.1 10 21.4
2005-10-19 07:34:50 51°22.686 2°53.796 20.5 12.1 9 21.4
2005-10-19 07:34:55 51°22.702 2°53.801 20.3 12.1 11 21.4
2005-10-19 07:35:00 51°22.719 2°53.805 20.1 12.1 10 21.1
2005-10-19 07:35:05 51°22.736 2°53.811 20.1 12.1 10 21.4
2005-10-19 07:35:10 51°22.752 2°53.815 20.1 12.2 10 21.5
2005-10-19 07:35:15 51°22.769 2°53.82 19.9 12.1 10 21.5
2005-10-19 07:35:20 51°22.785 2°53.824 20.2 12.1 10 21.6
2005-10-19 07:35:24 51°22.798 2°53.828 20.1 12.1 10 21.7
2005-10-19 07:35:30 51°22.818 2°53.834 19.9 12.1 11 21.4
2005-10-19 07:35:35 51°22.834 2°53.84 20.6 12 11 21.2
2005-10-19 07:35:40 51°22.851 2°53.845 21.3 12.1 12 20.9
2005-10-19 07:35:45 51°22.867 2°53.85 21.4 12 12 20.4
2005-10-19 07:35:50 51°22.884 2°53.856 21 12.1 12 19.6
2005-10-19 07:35:55 51°22.9 2°53.86 21 12.1 10 20.9
2005-10-19 07:36:00 51°22.916 2°53.864 19.7 12.1 9 20.2
2005-10-19 07:36:04 51°22.93 2°53.867 19 12.1 8 18.6
2005-10-19 07:36:10 51°22.95 2°53.872 18.2 12.1 9 15.3
2005-10-19 07:36:15 51°22.966 2°53.875 18.1 12 7 19.8
2005-10-19 07:36:20 51°22.982 2°53.879 17.5 12 8 19.9
2005-10-19 07:36:25 51°22.999 2°53.882 17.9 12 8 17.3
2005-10-19 07:36:30 51°23.015 2°53.886 17.7 12 8 20.4
2005-10-19 07:36:35 51°23.032 2°53.89 18.1 12 9 21
2005-10-19 07:36:40 51°23.048 2°53.895 18.3 12 9 21.1
2005-10-19 07:36:44 51°23.061 2°53.898 18.6 12.1 9 20.6
2005-10-19 07:36:50 51°23.082 2°53.903 18.8 12.1 8 20.7
2005-10-19 07:36:55 51°23.097 2°53.907 18.2 12 9 20.1
2005-10-19 07:37:00 51°23.114 2°53.911 18.2 12 9 19.2
2005-10-19 07:37:04 51°23.128 2°53.914 18.2 12 8 19.5
2005-10-19 07:37:10 51°23.147 2°53.919 18.2 12 9 20.8
2005-10-19 07:37:15 51°23.164 2°53.923 18.1 12.1 9 20.6
2005-10-19 07:37:20 51°23.18 2°53.927 18.4 12.1 8 20.1
2005-10-19 07:37:24 51°23.193 2°53.931 18.1 12.1 9 19.8
2005-10-19 07:37:30 51°23.214 2°53.935 18.1 12.1 9 17.6
2005-10-19 07:37:35 51°23.23 2°53.939 18.2 12.1 9 20
2005-10-19 07:37:40 51°23.247 2°53.942 18.2 12.2 7 20
2005-10-19 07:37:44 51°23.26 2°53.946 17.6 12.1 9 19.6
2005-10-19 07:37:50 51°23.28 2°53.95 18.1 12.1 7 19.2
2005-10-19 07:37:55 51°23.296 2°53.955 17.6 12.1 8 18.4
2005-10-19 07:38:00 51°23.313 2°53.958 18.1 12.1 8 19.2
2005-10-19 07:38:04 51°23.326 2°53.962 18.1 12 9 19.3
2005-10-19 07:38:10 51°23.346 2°53.967 18.3 12 10 19.1
2005-10-19 07:38:15 51°23.363 2°53.971 18.3 12 9 19.1
2005-10-19 07:38:20 51°23.379 2°53.976 18.5 12 9 18.9
2005-10-19 07:38:24 51°23.392 2°53.979 18.8 12 9 18.6
2005-10-19 07:38:30 51°23.412 2°53.984 18.5 12 8 18.2
2005-10-19 07:38:35 51°23.428 2°53.988 18 11.9 9 18.6
2005-10-19 07:38:40 51°23.444 2°53.992 18.5 12 9 19.3
2005-10-19 07:38:44 51°23.457 2°53.995 18.3 11.9 9 19.2
2005-10-19 07:38:50 51°23.477 2°54 18.4 12 8 19.2
2005-10-19 07:38:55 51°23.494 2°54.004 18.1 11.8 9 19
2005-10-19 07:39:00 51°23.51 2°54.008 18.2 11.8 9 18.6
2005-10-19 07:39:04 51°23.523 2°54.011 18 12.1 8 18.3
2005-10-19 07:39:10 51°23.542 2°54.015 17.8 12 7 18
2005-10-19 07:39:15 51°23.559 2°54.019 17.3 12 8 19.3
2005-10-19 07:39:20 51°23.575 2°54.022 17.3 11.9 8 19.2
2005-10-19 07:39:25 51°23.592 2°54.026 18 11.9 9 18.9
2005-10-19 07:39:30 51°23.608 2°54.031 18.7 11.9 9 18.5
2005-10-19 07:39:35 51°23.624 2°54.035 18.8 11.9 9 17.1
2005-10-19 07:39:40 51°23.641 2°54.038 18.4 11.9 9 17.5
2005-10-19 07:39:44 51°23.654 2°54.041 18.2 11.9 9 19.5
2005-10-19 07:39:50 51°23.673 2°54.046 17.7 11.9 8 19.4
2005-10-19 07:39:55 51°23.69 2°54.05 18.1 11.9 9 19.4
2005-10-19 07:40:00 51°23.705 2°54.054 18.3 11.8 9 19.5
2005-10-19 07:40:05 51°23.721 2°54.058 18.7 11.7 9 19.4
2005-10-19 07:40:10 51°23.738 2°54.062 18.4 11.8 9 18.9
2005-10-19 07:40:15 51°23.754 2°54.065 18.4 11.8 9 19.3
2005-10-19 07:40:20 51°23.77 2°54.07 18.1 11.8 9 19.5
2005-10-19 07:40:24 51°23.783 2°54.072 18.1 11.8 8 19.2
2005-10-19 07:40:30 51°23.803 2°54.077 17.5 11.9 8 19.7
2005-10-19 07:40:35 51°23.819 2°54.081 17.8 11.8 8 19.8
2005-10-19 07:40:40 51°23.835 2°54.085 18.3 11.8 9 19.6
2005-10-19 07:40:45 51°23.852 2°54.089 18.4 12 8 19.8
2005-10-19 07:40:50 51°23.868 2°54.093 18.1 11.9 9 19.9
2005-10-19 07:40:55 51°23.884 2°54.097 18.4 11.9 9 19.9
2005-10-19 07:41:00 51°23.9 2°54.102 18.5 11.9 9 19.8
2005-10-19 07:41:04 51°23.913 2°54.104 19.1 12 8 20.2
2005-10-19 07:41:10 51°23.933 2°54.11 18.4 12 10 20.2
2005-10-19 07:41:15 51°23.949 2°54.113 18.5 11.9 8 20.2
2005-10-19 07:41:20 51°23.965 2°54.118 18.3 11.8 9 20.1
2005-10-19 07:41:24 51°23.979 2°54.121 18.3 11.9 9 20.2
2005-10-19 07:41:30 51°23.998 2°54.125 18.2 11.8 9 20.1
2005-10-19 07:41:35 51°24.014 2°54.129 18.4 11.8 8 20.2
2005-10-19 07:41:40 51°24.031 2°54.133 17.8 11.8 8 20.3
2005-10-19 07:41:44 51°24.044 2°54.137 17.9 11.8 10 20.4
2005-10-19 07:41:50 51°24.063 2°54.14 18.5 11.9 7 20.6
2005-10-19 07:41:55 51°24.079 2°54.145 17.4 11.9 8 20.6
2005-10-19 07:42:00 51°24.096 2°54.148 18 11.9 8 20.6
2005-10-19 07:42:04 51°24.109 2°54.151 18 11.9 9 20.4
2005-10-19 07:42:10 51°24.128 2°54.156 18 11.9 8 20.3
2005-10-19 07:42:15 51°24.145 2°54.16 17.9 11.9 9 20
2005-10-19 07:42:20 51°24.161 2°54.163 18.1 12 8 20.6
2005-10-19 07:42:24 51°24.174 2°54.166 17.8 12 7 20.7
2005-10-19 07:42:30 51°24.194 2°54.171 17.4 12 9 21
2005-10-19 07:42:35 51°24.21 2°54.174 17.5 12.2 7 20.7
2005-10-19 07:42:40 51°24.227 2°54.178 17.3 12 9 20.7
2005-10-19 07:42:44 51°24.24 2°54.181 18.2 11.9 8 20.6
2005-10-19 07:42:50 51°24.26 2°54.187 18.5 12 10 20.3
2005-10-19 07:42:55 51°24.276 2°54.191 19.1 12.1 9 19.9
2005-10-19 07:43:00 51°24.292 2°54.195 18.4 12.1 8 18.5
2005-10-19 07:43:04 51°24.306 2°54.198 17.8 12 8 20.1
2005-10-19 07:43:10 51°24.325 2°54.201 17.4 12 7 20.5
2005-10-19 07:43:15 51°24.342 2°54.205 17 12 7 20.6
2005-10-19 07:43:20 51°24.358 2°54.209 17.2 12 9 20.1
2005-10-19 07:43:25 51°24.375 2°54.213 17.5 12 8 20.1
2005-10-19 07:43:30 51°24.392 2°54.218 17.8 11.9 9 18.5
2005-10-19 07:43:35 51°24.407 2°54.22 18.3 12 7 18.3
2005-10-19 07:43:40 51°24.423 2°54.226 17.4 11.9 7 18.8
2005-10-19 07:43:44 51°24.436 2°54.228 18.8 11.8 8 18.7
2005-10-19 07:43:50 51°24.456 2°54.234 18.4 11.8 10 18.6
2005-10-19 07:43:55 51°24.472 2°54.238 18.6 11.7 10 18.4
2005-10-19 07:44:00 51°24.488 2°54.243 18.8 11.8 10 18
2005-10-19 07:44:04 51°24.501 2°54.247 19 11.8 12 16.4
2005-10-19 07:44:10 51°24.52 2°54.252 20.2 11.8 9 17.4
2005-10-19 07:44:15 51°24.536 2°54.257 19.3 11.7 11 17.6
2005-10-19 07:44:20 51°24.552 2°54.261 19.7 11.8 9 16.4
2005-10-19 07:44:24 51°24.565 2°54.265 19.1 11.8 11 17.1
2005-10-19 07:44:30 51°24.585 2°54.269 18.1 11.7 7 17.2
2005-10-19 07:44:35 51°24.601 2°54.273 17.8 11.7 10 17.3
2005-10-19 07:44:40 51°24.617 2°54.278 17.4 11.7 8 16.1
2005-10-19 07:44:44 51°24.629 2°54.282 18.1 11.7 11 16.5
2005-10-19 07:44:50 51°24.648 2°54.287 19 11.7 10 16.6
2005-10-19 07:44:55 51°24.664 2°54.293 19.6 11.6 12 16.6
2005-10-19 07:45:00 51°24.681 2°54.297 20.5 11.7 11 15.7
2005-10-19 07:45:05 51°24.696 2°54.302 20.1 11.8 10 15.7
2005-10-19 07:45:10 51°24.712 2°54.307 19.2 11.5 11 16
2005-10-19 07:45:15 51°24.728 2°54.311 19.7 11.6 10 16.2
2005-10-19 07:45:20 51°24.744 2°54.315 18.9 11.6 10 16.1
2005-10-19 07:45:24 51°24.756 2°54.319 18.8 11.7 10 16.4
2005-10-19 07:45:30 51°24.776 2°54.324 18.7 11.7 9 16.3
2005-10-19 07:45:35 51°24.792 2°54.329 18.6 11.8 11 16.3
2005-10-19 07:45:40 51°24.808 2°54.333 19.1 11.8 9 16.2
2005-10-19 07:45:45 51°24.825 2°54.338 18.9 11.7 10 15.2
2005-10-19 07:45:50 51°24.842 2°54.342 18.8 11.8 9 16.6
2005-10-19 07:45:55 51°24.858 2°54.345 18 11.8 9 17
2005-10-19 07:46:00 51°24.873 2°54.35 17.7 11.8 9 17.3
2005-10-19 07:46:04 51°24.886 2°54.354 17.9 11.8 9 17.1
2005-10-19 07:46:10 51°24.906 2°54.358 18 11.8 9 17.3
2005-10-19 07:46:15 51°24.921 2°54.362 18.1 11.8 9 17.4
2005-10-19 07:46:20 51°24.938 2°54.367 18 11.8 9 17.3
2005-10-19 07:46:25 51°24.955 2°54.371 18.1 12 10 17.9
2005-10-19 07:46:30 51°24.971 2°54.375 18.4 11.9 10 18.4
2005-10-19 07:46:35 51°24.987 2°54.38 18.8 11.8 10 18.6
2005-10-19 07:46:40 51°25.004 2°54.384 18.3 11.9 8 18.8
2005-10-19 07:46:45 51°25.02 2°54.388 18.1 12 9 18.5
2005-10-19 07:46:50 51°25.036 2°54.392 17.9 11.9 9 18.4
2005-10-19 07:46:55 51°25.052 2°54.396 18.1 12 8 18.4
2005-10-19 07:47:00 51°25.069 2°54.4 17.6 12 8 18.7
2005-10-19 07:47:04 51°25.082 2°54.403 17.5 12 8 19.1
2005-10-19 07:47:10 51°25.102 2°54.408 17.5 11.9 8 19.1
2005-10-19 07:47:15 51°25.118 2°54.411 17.8 11.9 9 19.4
2005-10-19 07:47:20 51°25.135 2°54.416 17.8 11.9 8 19.6
2005-10-19 07:47:24 51°25.148 2°54.419 17.6 12 10 19.5
2005-10-19 07:47:30 51°25.168 2°54.425 18.4 12.1 10 19.7
2005-10-19 07:47:35 51°25.184 2°54.43 18.8 11.9 10 19.9
2005-10-19 07:47:40 51°25.201 2°54.434 18.9 12 10 19.9
2005-10-19 07:47:44 51°25.214 2°54.438 19.1 12.1 10 19.3
2005-10-19 07:47:50 51°25.234 2°54.443 18.7 12.1 10 18.4
2005-10-19 07:47:55 51°25.25 2°54.447 18.7 12 9 18.7
2005-10-19 07:48:00 51°25.267 2°54.451 17.4 12 9 19.3
2005-10-19 07:48:04 51°25.28 2°54.454 17.3 12 8 19.3
2005-10-19 07:48:10 51°25.3 2°54.46 18 12 10 19.4
2005-10-19 07:48:15 51°25.316 2°54.463 18.2 12 9 19.5
2005-10-19 07:48:20 51°25.332 2°54.468 17.8 12 9 19.4
2005-10-19 07:48:24 51°25.345 2°54.472 18.6 11.9 10 19.2
2005-10-19 07:48:30 51°25.365 2°54.477 18.3 11.9 9 19.1
2005-10-19 07:48:35 51°25.381 2°54.481 18 11.9 9 19.2
2005-10-19 07:48:40 51°25.398 2°54.486 17.9 11.8 9 19
2005-10-19 07:48:44 51°25.41 2°54.489 18.8 11.8 11 18.4
2005-10-19 07:48:50 51°25.43 2°54.495 18.8 11.8 10 18.4
2005-10-19 07:48:55 51°25.446 2°54.499 19.4 11.8 10 16.1
2005-10-19 07:49:00 51°25.462 2°54.504 19.2 11.8 10 17.5
2005-10-19 07:49:04 51°25.475 2°54.507 18.1 11.8 8 18.2
2005-10-19 07:49:10 51°25.494 2°54.511 17.9 11.8 9 18.6
2005-10-19 07:49:15 51°25.51 2°54.516 17.4 11.8 10 19
2005-10-19 07:49:20 51°25.526 2°54.52 18.3 11.9 9 19.3
2005-10-19 07:49:24 51°25.539 2°54.524 18.8 12 10 19.4
2005-10-19 07:49:30 51°25.559 2°54.529 18.8 11.9 9 19.5
2005-10-19 07:49:35 51°25.575 2°54.534 18.2 11.9 10 19.7
2005-10-19 07:49:40 51°25.591 2°54.539 18.7 11.8 11 19.3
2005-10-19 07:49:44 51°25.604 2°54.543 19.2 12 10 18.8
2005-10-19 07:49:50 51°25.624 2°54.548 19.2 11.9 10 19.2
2005-10-19 07:49:55 51°25.64 2°54.552 18.5 11.9 9 19.6
2005-10-19 07:50:00 51°25.656 2°54.557 17.7 12 9 19.7
2005-10-19 07:50:04 51°25.669 2°54.56 17.6 12 9 20
2005-10-19 07:50:10 51°25.689 2°54.565 18 11.9 9 20.2
2005-10-19 07:50:15 51°25.706 2°54.569 17.8 11.9 8 20.4
2005-10-19 07:50:20 51°25.722 2°54.573 17.5 12 9 20.6
2005-10-19 07:50:24 51°25.735 2°54.575 17.5 11.9 8 20.7
2005-10-19 07:50:30 51°25.755 2°54.579 17.2 11.8 8 21.1
2005-10-19 07:50:35 51°25.771 2°54.583 17.1 11.9 9 21.2
2005-10-19 07:50:40 51°25.787 2°54.587 17.8 11.8 9 21.2
2005-10-19 07:50:45 51°25.803 2°54.59 17.5 12 7 21.4
2005-10-19 07:50:50 51°25.82 2°54.594 17.4 11.9 9 21.6
2005-10-19 07:50:55 51°25.836 2°54.597 17.4 11.9 6 21.8
2005-10-19 07:51:00 51°25.853 2°54.601 16.8 11.9 8 22
2005-10-19 07:51:04 51°25.866 2°54.604 16.8 11.9 7 22
2005-10-19 07:51:10 51°25.885 2°54.608 16.8 11.9 7 22.1
2005-10-19 07:51:15 51°25.901 2°54.612 17.4 11.9 8 22.3
2005-10-19 07:51:20 51°25.917 2°54.616 17.8 11.7 9 22.3
2005-10-19 07:51:24 51°25.93 2°54.62 18.8 11.8 10 22.4
2005-10-19 07:51:30 51°25.95 2°54.625 19.1 11.8 9 22.6
2005-10-19 07:51:35 51°25.966 2°54.629 19 11.8 9 22.7
2005-10-19 07:51:40 51°25.983 2°54.633 18.8 11.9 8 22.8
2005-10-19 07:51:44 51°25.995 2°54.636 18.5 11.9 10 22.8
2005-10-19 07:51:50 51°26.015 2°54.641 18.7 11.8 8 23
2005-10-19 07:51:55 51°26.031 2°54.645 18.4 11.8 9 22.9
2005-10-19 07:52:00 51°26.047 2°54.649 18.6 11.9 7 22.9
2005-10-19 07:52:04 51°26.061 2°54.652 17.9 11.9 8 23
2005-10-19 07:52:10 51°26.08 2°54.655 17.9 12 7 23
2005-10-19 07:52:15 51°26.096 2°54.659 17.1 12 8 23.2
2005-10-19 07:52:20 51°26.113 2°54.664 17.2 11.9 9 23.2
2005-10-19 07:52:24 51°26.126 2°54.668 18.8 12 11 23.4
2005-10-19 07:52:30 51°26.146 2°54.672 19.5 12 8 23.4
2005-10-19 07:52:35 51°26.162 2°54.678 19.2 11.9 11 23.4
2005-10-19 07:52:40 51°26.178 2°54.682 19.5 12 9 23.3
2005-10-19 07:52:44 51°26.191 2°54.686 19.7 11.9 12 23.3
2005-10-19 07:52:50 51°26.21 2°54.692 20.1 11.8 11 23.5
2005-10-19 07:52:55 51°26.226 2°54.698 20.8 11.8 12 23.7
2005-10-19 07:53:00 51°26.242 2°54.703 20.7 11.8 10 24
2005-10-19 07:53:04 51°26.255 2°54.707 20.9 11.7 13 24.3
2005-10-19 07:53:10 51°26.274 2°54.714 21.2 11.7 12 24.2
2005-10-19 07:53:15 51°26.29 2°54.719 21.2 11.7 13 24.3
2005-10-19 07:53:20 51°26.306 2°54.724 21.4 11.7 11 24.4
2005-10-19 07:53:25 51°26.321 2°54.73 21.2 11.6 13 24.5
2005-10-19 07:53:30 51°26.337 2°54.735 21 11.6 11 24.6
2005-10-19 07:53:35 51°26.353 2°54.741 21.4 11.7 12 24.7
2005-10-19 07:53:39 51°26.365 2°54.746 20.6 11.6 13 25
2005-10-19 07:53:44 51°26.382 2°54.75 21.3 11.8 11 25.2
2005-10-19 07:53:50 51°26.401 2°54.757 20.6 11.7 13 25.4
2005-10-19 07:53:55 51°26.416 2°54.762 20.8 11.7 11 25.2
2005-10-19 07:54:00 51°26.432 2°54.767 20.6 11.7 10 24.4
2005-10-19 07:54:04 51°26.445 2°54.771 19.9 11.8 11 25.2
2005-10-19 07:54:10 51°26.464 2°54.776 20 11.8 10 25.4
2005-10-19 07:54:15 51°26.48 2°54.782 20.2 11.8 13 25.4
2005-10-19 07:54:20 51°26.496 2°54.787 20.9 11.8 13 25.7
2005-10-19 07:54:25 51°26.513 2°54.792 20.8 11.6 11 26
2005-10-19 07:54:30 51°26.528 2°54.796 20.2 11.6 10 26
2005-10-19 07:54:35 51°26.544 2°54.801 19 11.5 9 24.8
2005-10-19 07:54:40 51°26.56 2°54.804 18.4 11.6 9 26.1
2005-10-19 07:54:44 51°26.573 2°54.808 18.1 11.6 10 26.1
2005-10-19 07:54:50 51°26.591 2°54.813 18 11.6 9 25.9
2005-10-19 07:54:55 51°26.608 2°54.817 18.2 11.6 10 26.4
2005-10-19 07:55:00 51°26.623 2°54.822 19 11.7 11 26.9
2005-10-19 07:55:04 51°26.636 2°54.825 19.7 11.7 9 27.1
2005-10-19 07:55:10 51°26.655 2°54.831 19 11.8 10 26.9
2005-10-19 07:55:15 51°26.672 2°54.834 18.8 11.8 8 26.7
2005-10-19 07:55:20 51°26.688 2°54.838 17.8 11.8 8 26.8
2005-10-19 07:55:24 51°26.7 2°54.841 17.8 11.7 8 26.5
2005-10-19 07:55:30 51°26.721 2°54.847 17.8 11.8 9 26.2
2005-10-19 07:55:35 51°26.736 2°54.851 18.1 11.8 9 26
2005-10-19 07:55:40 51°26.752 2°54.856 18.4 11.7 11 26
2005-10-19 07:55:45 51°26.768 2°54.86 19.2 11.8 9 25.9
2005-10-19 07:55:50 51°26.785 2°54.864 19.4 11.8 10 25.9
2005-10-19 07:55:55 51°26.8 2°54.868 18.1 11.8 8 25.7
2005-10-19 07:56:00 51°26.816 2°54.872 18.1 11.8 8 25.5
2005-10-19 07:56:04 51°26.829 2°54.875 18.5 11.6 9 25.5
2005-10-19 07:56:10 51°26.848 2°54.881 18.5 11.7 10 25.4
2005-10-19 07:56:15 51°26.864 2°54.885 18.8 11.7 10 25.4
2005-10-19 07:56:20 51°26.88 2°54.889 18.8 11.7 9 25.3
2005-10-19 07:56:25 51°26.896 2°54.894 18.8 11.8 10 25.5